Time;durP1;ratioP1;P1;durP2;ratioP2;P2;SDS_P1;SDS_P2;PMS_P1;PMS_P2;Temp;Humidity;BMP_temperature;BMP_pressure;BME280_temperature;BME280_humidity;BME280_pressure;Samples;Min_cycle;Max_cycle;Signal;HPM_P1;HPM_P2
2021/03/06 00:02:04;;;;;;;9.57;6.37;;;4.00;61.40;;;;;;5073398;28;20443;-72
2021/03/06 00:04:30;;;;;;;11.53;7.80;;;4.00;61.70;;;;;;5073294;28;20450;-72
2021/03/06 00:06:57;;;;;;;10.20;6.70;;;3.90;61.80;;;;;;5073043;28;20526;-72
2021/03/06 00:09:24;;;;;;;7.90;5.90;;;3.90;61.80;;;;;;5073849;28;20432;-72
2021/03/06 00:11:50;;;;;;;8.40;6.00;;;3.90;61.70;;;;;;5073124;28;20904;-72
2021/03/06 00:14:16;;;;;;;12.60;6.40;;;3.80;61.90;;;;;;5072923;28;20969;-72
2021/03/06 00:16:42;;;;;;;6.77;5.13;;;3.80;61.90;;;;;;5073123;28;20470;-72
2021/03/06 00:19:08;;;;;;;8.10;6.57;;;3.80;62.00;;;;;;5072899;28;20934;-72
2021/03/06 00:21:35;;;;;;;10.27;5.50;;;3.80;61.80;;;;;;5073216;28;20442;-72
2021/03/06 00:24:01;;;;;;;7.73;5.40;;;3.80;62.10;;;;;;5073120;28;20442;-72
2021/03/06 00:26:28;;;;;;;6.53;5.30;;;3.70;62.30;;;;;;5073060;28;20467;-72
2021/03/06 00:28:54;;;;;;;6.37;5.40;;;3.70;62.50;;;;;;5073053;28;20454;-72
2021/03/06 00:31:20;;;;;;;6.10;5.23;;;3.70;62.60;;;;;;5072993;28;20478;-72
2021/03/06 00:33:46;;;;;;;7.47;5.20;;;3.70;62.40;;;;;;5073041;28;20470;-72
2021/03/06 00:36:12;;;;;;;6.53;5.70;;;3.70;62.70;;;;;;5072648;28;21018;-72
2021/03/06 00:38:39;;;;;;;8.13;5.63;;;3.60;62.70;;;;;;5074822;28;20439;-72
2021/03/06 00:41:05;;;;;;;6.47;5.23;;;3.70;62.90;;;;;;5077032;28;20420;-72
2021/03/06 00:43:32;;;;;;;6.10;5.03;;;3.60;62.70;;;;;;5076781;28;20451;-72
2021/03/06 00:45:58;;;;;;;7.70;5.93;;;3.60;62.60;;;;;;5076691;28;20474;-72
2021/03/06 00:48:24;;;;;;;5.80;5.07;;;3.60;62.50;;;;;;5076651;28;20447;-72
2021/03/06 00:50:50;;;;;;;6.20;5.10;;;3.50;62.40;;;;;;5076220;28;21005;-72
2021/03/06 00:53:17;;;;;;;6.17;4.97;;;3.50;62.60;;;;;;5076290;28;20448;-72
2021/03/06 00:55:43;;;;;;;5.83;5.00;;;3.50;62.90;;;;;;5076457;28;20447;-72
2021/03/06 00:58:09;;;;;;;6.20;5.33;;;3.50;62.90;;;;;;5076178;28;20944;-72
2021/03/06 01:00:36;;;;;;;8.47;5.17;;;3.50;63.30;;;;;;5076427;28;20442;-72
2021/03/06 01:03:02;;;;;;;6.60;4.90;;;3.40;63.50;;;;;;5076436;28;20446;-72
2021/03/06 01:05:29;;;;;;;7.23;4.97;;;3.40;63.90;;;;;;5076137;28;20466;-72
2021/03/06 01:07:55;;;;;;;6.73;6.00;;;3.30;63.90;;;;;;5076561;28;20495;-72
2021/03/06 01:10:26;;;;;;;8.47;6.03;;;3.30;64.10;;;;;;5075914;28;21019;-72
2021/03/06 01:12:52;;;;;;;6.83;5.87;;;3.30;64.40;;;;;;5076006;28;20962;-72
2021/03/06 01:15:18;;;;;;;7.90;5.47;;;3.30;64.30;;;;;;5075895;28;20817;-72
2021/03/06 01:17:46;;;;;;;6.13;5.53;;;3.30;64.20;;;;;;5076127;28;20465;-72
2021/03/06 01:20:13;;;;;;;7.03;5.27;;;3.30;64.30;;;;;;5076130;28;20432;-72
2021/03/06 01:22:39;;;;;;;8.73;6.27;;;3.30;64.20;;;;;;5076029;28;20507;-72
2021/03/06 01:25:08;;;;;;;6.93;5.83;;;3.30;64.30;;;;;;5075978;28;20476;-72
2021/03/06 01:27:34;;;;;;;9.67;5.83;;;3.20;64.10;;;;;;5075884;28;20465;-72
2021/03/06 01:30:00;;;;;;;7.23;5.50;;;3.20;63.90;;;;;;5075834;28;20443;-72
2021/03/06 01:32:27;;;;;;;6.60;5.47;;;3.20;64.00;;;;;;5075912;28;20449;-72
2021/03/06 01:34:54;;;;;;;6.77;5.27;;;3.20;64.30;;;;;;5076103;28;20442;-72
2021/03/06 01:37:20;;;;;;;7.53;5.30;;;3.10;64.30;;;;;;5075720;28;20471;-72
2021/03/06 01:39:46;;;;;;;9.37;6.03;;;3.10;64.90;;;;;;5075736;28;20451;-72
2021/03/06 01:42:12;;;;;;;6.50;5.87;;;3.10;65.10;;;;;;5075696;28;20442;-72
2021/03/06 01:44:38;;;;;;;5.77;5.20;;;3.10;65.40;;;;;;5075629;28;20493;-72
2021/03/06 01:47:05;;;;;;;7.57;6.30;;;3.10;65.50;;;;;;5075218;28;21007;-72
2021/03/06 01:49:31;;;;;;;8.27;5.27;;;3.00;65.40;;;;;;5075746;28;20450;-72
2021/03/06 01:51:58;;;;;;;6.27;5.67;;;3.00;65.40;;;;;;5075654;28;20486;-72
2021/03/06 01:54:27;;;;;;;6.77;6.07;;;3.00;65.50;;;;;;5075483;28;20448;-72
2021/03/06 01:56:54;;;;;;;6.80;6.20;;;3.00;65.60;;;;;;5075022;28;20987;-72
2021/03/06 01:59:21;;;;;;;7.23;5.97;;;2.90;65.80;;;;;;5075626;28;20450;-72
2021/03/06 02:01:47;;;;;;;9.40;6.20;;;2.90;65.80;;;;;;5075023;28;20439;-72
2021/03/06 02:04:14;;;;;;;6.77;5.27;;;2.90;66.00;;;;;;5075271;28;20461;-72
2021/03/06 02:06:40;;;;;;;6.50;5.87;;;2.90;66.00;;;;;;5074838;28;20492;-72
2021/03/06 02:09:07;;;;;;;8.10;5.90;;;2.90;66.20;;;;;;5075245;28;20453;-72
2021/03/06 02:11:43;;;;;;;7.53;5.50;;;2.90;66.20;;;;;;5074910;28;21075;-72
2021/03/06 02:14:24;;;;;;;5.90;5.30;;;2.80;66.10;;;;;;5074768;28;20794;-72
2021/03/06 02:16:56;;;;;;;7.03;5.77;;;2.80;66.20;;;;;;5074925;28;20498;-72
2021/03/06 02:20:01;;;;;;;5.90;5.30;;;2.80;66.30;;;;;;5074954;28;20433;-72
2021/03/06 02:22:42;;;;;;;8.40;5.97;;;2.80;66.30;;;;;;5074851;28;20430;-72
2021/03/06 02:25:34;;;;;;;6.43;5.60;;;2.80;66.00;;;;;;5074594;28;20436;-72
2021/03/06 02:28:07;;;;;;;6.53;5.93;;;2.80;66.10;;;;;;5074820;28;20797;-72
2021/03/06 02:30:35;;;;;;;8.43;5.80;;;2.70;65.90;;;;;;5074729;28;20560;-72
2021/03/06 02:33:02;;;;;;;8.20;6.60;;;2.70;65.70;;;;;;5075184;28;20498;-71
2021/03/06 02:35:32;;;;;;;8.93;6.60;;;2.70;65.90;;;;;;5074305;28;20997;-72
2021/03/06 02:38:01;;;;;;;7.37;6.20;;;2.70;66.00;;;;;;5074257;28;20891;-72
2021/03/06 02:40:30;;;;;;;9.63;6.40;;;2.60;66.10;;;;;;5074559;28;20495;-71
2021/03/06 02:42:57;;;;;;;8.00;6.47;;;2.60;66.00;;;;;;5074721;28;20452;-72
2021/03/06 02:45:25;;;;;;;8.67;5.83;;;2.60;66.10;;;;;;5074476;28;20820;-72
2021/03/06 02:47:52;;;;;;;9.40;7.50;;;2.60;66.10;;;;;;5074303;28;20465;-72
2021/03/06 02:50:19;;;;;;;7.00;6.23;;;2.60;66.20;;;;;;5074294;28;20484;-72
2021/03/06 02:52:45;;;;;;;7.20;6.50;;;2.60;66.50;;;;;;5074270;28;20501;-72
2021/03/06 02:55:13;;;;;;;9.10;6.27;;;2.60;66.80;;;;;;5074270;28;20455;-72
2021/03/06 02:58:03;;;;;;;6.03;5.27;;;2.60;66.80;;;;;;5074113;28;20464;-72
2021/03/06 03:00:41;;;;;;;9.90;5.80;;;2.60;66.90;;;;;;5073826;28;20799;-72
2021/03/06 03:03:22;;;;;;;8.07;6.10;;;2.50;67.00;;;;;;5074149;28;20422;-72
2021/03/06 03:05:57;;;;;;;7.63;6.53;;;2.50;67.10;;;;;;5073918;28;20456;-72
2021/03/06 03:08:28;;;;;;;9.00;6.17;;;2.50;67.20;;;;;;5074088;28;20806;-72
2021/03/06 03:10:57;;;;;;;9.00;7.00;;;2.40;67.10;;;;;;5073921;28;20492;-72
2021/03/06 03:13:28;;;;;;;8.47;6.70;;;2.40;67.10;;;;;;5073930;28;20447;-72
2021/03/06 03:16:03;;;;;;;8.40;6.23;;;2.50;67.30;;;;;;5073590;28;20461;-72
2021/03/06 03:18:37;;;;;;;9.50;7.03;;;2.40;67.20;;;;;;5073857;28;20474;-72
2021/03/06 03:21:05;;;;;;;9.87;6.60;;;2.40;67.20;;;;;;5073894;28;20422;-71
2021/03/06 03:23:38;;;;;;;8.37;6.67;;;2.40;67.10;;;;;;5074094;28;20448;-72
2021/03/06 03:26:09;;;;;;;8.83;6.70;;;2.40;67.00;;;;;;5073777;28;20470;-72
2021/03/06 03:28:37;;;;;;;8.23;6.30;;;2.40;67.20;;;;;;5073496;28;20902;-72
2021/03/06 03:31:04;;;;;;;8.93;7.00;;;2.30;67.30;;;;;;5073594;28;20477;-72
2021/03/06 03:33:32;;;;;;;7.93;6.57;;;2.30;67.40;;;;;;5073673;28;20461;-71
2021/03/06 03:36:01;;;;;;;14.47;7.53;;;2.30;67.50;;;;;;5073553;28;20461;-71
2021/03/06 03:38:28;;;;;;;8.27;7.47;;;2.30;67.30;;;;;;5074333;28;20446;-71
2021/03/06 03:40:55;;;;;;;7.53;6.73;;;2.30;67.70;;;;;;5074448;28;20789;-71
2021/03/06 03:43:23;;;;;;;8.10;6.90;;;2.30;67.80;;;;;;5073539;28;20445;-71
2021/03/06 03:45:49;;;;;;;10.53;7.53;;;2.20;68.20;;;;;;5073114;28;21052;-71
2021/03/06 03:48:16;;;;;;;7.63;6.73;;;2.20;68.00;;;;;;5073256;28;20441;-71
2021/03/06 03:50:43;;;;;;;8.80;7.67;;;2.20;67.90;;;;;;5073425;28;20534;-71
2021/03/06 03:53:13;;;;;;;11.40;7.90;;;2.20;68.50;;;;;;5073122;28;20941;-71
2021/03/06 03:55:39;;;;;;;9.07;6.73;;;2.10;68.40;;;;;;5073409;28;20821;-71
2021/03/06 03:58:06;;;;;;;10.70;7.50;;;2.20;68.70;;;;;;5073468;28;20444;-71
2021/03/06 04:00:32;;;;;;;9.00;7.17;;;2.10;68.40;;;;;;5073339;28;20936;-71
2021/03/06 04:03:01;;;;;;;9.87;7.80;;;2.10;68.50;;;;;;5072998;28;20444;-71
2021/03/06 04:05:28;;;;;;;11.67;8.30;;;2.10;68.40;;;;;;5072928;28;20509;-71
2021/03/06 04:07:55;;;;;;;10.13;7.90;;;2.10;68.40;;;;;;5073213;28;20466;-71
2021/03/06 04:10:23;;;;;;;9.50;7.70;;;2.00;68.20;;;;;;5073206;28;20875;-71
2021/03/06 04:12:50;;;;;;;8.70;7.80;;;2.10;68.30;;;;;;5073772;28;20450;-71
2021/03/06 04:15:19;;;;;;;10.87;8.50;;;2.10;68.30;;;;;;5077312;28;20440;-71
2021/03/06 04:17:46;;;;;;;9.27;7.23;;;2.00;68.10;;;;;;5077250;28;20460;-71
2021/03/06 04:20:14;;;;;;;9.77;7.00;;;2.00;68.10;;;;;;5077236;28;20448;-71
2021/03/06 04:22:40;;;;;;;10.07;7.87;;;2.00;68.20;;;;;;5076889;28;20448;-71
2021/03/06 04:25:09;;;;;;;11.30;7.87;;;2.00;68.20;;;;;;5077150;28;20449;-71
2021/03/06 04:27:37;;;;;;;9.67;7.50;;;2.00;68.30;;;;;;5077039;28;20487;-71
2021/03/06 04:30:05;;;;;;;7.47;6.77;;;2.00;68.20;;;;;;5077049;28;20446;-71
2021/03/06 04:32:32;;;;;;;10.83;8.10;;;1.90;68.00;;;;;;5076974;28;20442;-71
2021/03/06 04:34:58;;;;;;;8.13;7.30;;;1.90;68.30;;;;;;5076962;28;20444;-71
2021/03/06 04:37:24;;;;;;;11.80;8.57;;;1.90;68.30;;;;;;5076828;28;20469;-71
2021/03/06 04:39:51;;;;;;;8.70;6.57;;;1.90;68.30;;;;;;5076533;28;21008;-71
2021/03/06 04:42:18;;;;;;;11.07;7.57;;;1.90;68.30;;;;;;5076815;28;20474;-71
2021/03/06 04:44:44;;;;;;;10.30;7.80;;;1.90;68.40;;;;;;5076788;28;20445;-71
2021/03/06 04:47:10;;;;;;;8.33;7.47;;;1.90;68.40;;;;;;5076905;28;20463;-71
2021/03/06 04:49:38;;;;;;;9.67;8.00;;;1.90;68.30;;;;;;5076741;28;20445;-71
2021/03/06 04:52:04;;;;;;;9.73;8.33;;;1.80;68.30;;;;;;5076583;28;20861;-71
2021/03/06 04:54:31;;;;;;;7.60;6.87;;;1.80;68.30;;;;;;5076616;28;20443;-71
2021/03/06 04:56:57;;;;;;;9.07;8.13;;;1.80;68.20;;;;;;5076498;28;20476;-71
2021/03/06 04:59:24;;;;;;;8.30;7.50;;;1.80;68.30;;;;;;5076176;28;20970;-71
2021/03/06 05:01:50;;;;;;;9.57;7.50;;;1.80;68.40;;;;;;5076464;28;20452;-71
2021/03/06 05:04:16;;;;;;;8.90;8.00;;;1.80;68.40;;;;;;5076154;28;20945;-71
2021/03/06 05:06:45;;;;;;;10.07;7.83;;;1.70;68.60;;;;;;5075090;28;20487;-71
2021/03/06 05:09:11;;;;;;;9.50;8.50;;;1.80;68.80;;;;;;5075189;28;20509;-71
2021/03/06 05:11:37;;;;;;;10.20;8.20;;;1.70;68.70;;;;;;5075177;28;20476;-71
2021/03/06 05:14:03;;;;;;;7.93;6.90;;;1.70;68.70;;;;;;5075122;28;20500;-71
2021/03/06 05:16:30;;;;;;;8.63;7.83;;;1.70;68.80;;;;;;5075030;28;20474;-71
2021/03/06 05:18:57;;;;;;;12.63;7.67;;;1.70;69.10;;;;;;5074741;28;20911;-71
2021/03/06 05:21:23;;;;;;;11.10;8.63;;;1.60;69.10;;;;;;5075554;28;20491;-71
2021/03/06 05:23:49;;;;;;;8.83;7.47;;;1.60;69.00;;;;;;5074549;28;20452;-71
2021/03/06 05:26:15;;;;;;;9.80;7.00;;;1.60;69.10;;;;;;5074827;28;20463;-71
2021/03/06 05:28:42;;;;;;;10.80;7.63;;;1.60;69.00;;;;;;5074555;28;20949;-71
2021/03/06 05:31:08;;;;;;;10.40;7.57;;;1.60;69.00;;;;;;5074712;28;21048;-71
2021/03/06 05:33:35;;;;;;;9.80;7.03;;;1.60;69.20;;;;;;5074814;28;20448;-71
2021/03/06 05:36:01;;;;;;;8.60;7.17;;;1.60;69.30;;;;;;5074677;28;20467;-71
2021/03/06 05:38:27;;;;;;;11.93;7.00;;;1.50;69.60;;;;;;5074708;28;20452;-71
2021/03/06 05:40:53;;;;;;;10.20;7.83;;;1.50;69.80;;;;;;5074691;28;20443;-71
2021/03/06 05:43:20;;;;;;;8.33;7.00;;;1.40;70.10;;;;;;5074336;28;20946;-71
2021/03/06 05:45:48;;;;;;;9.70;6.63;;;1.40;70.20;;;;;;5074549;28;20817;-71
2021/03/06 05:48:17;;;;;;;9.43;7.77;;;1.50;70.20;;;;;;5074569;28;20452;-71
2021/03/06 05:50:47;;;;;;;8.13;7.03;;;1.40;70.10;;;;;;5074145;28;21122;-71
2021/03/06 05:53:15;;;;;;;8.50;7.10;;;1.40;70.00;;;;;;5074210;28;20798;-71
2021/03/06 05:55:46;;;;;;;9.30;7.60;;;1.40;69.80;;;;;;5074394;28;20493;-71
2021/03/06 05:58:13;;;;;;;9.90;7.67;;;1.40;69.80;;;;;;5075258;28;20428;-71
2021/03/06 06:00:41;;;;;;;9.57;7.57;;;1.40;69.80;;;;;;5074372;28;20440;-71
2021/03/06 06:03:09;;;;;;;8.87;7.43;;;1.40;69.80;;;;;;5074326;28;20605;-71
2021/03/06 06:05:35;;;;;;;11.00;8.00;;;1.40;69.80;;;;;;5049915;28;702815;-71
2021/03/06 06:08:03;;;;;;;8.73;7.60;;;1.40;70.10;;;;;;5075189;28;20451;-71
2021/03/06 06:10:31;;;;;;;10.13;9.07;;;1.40;69.90;;;;;;5074790;28;20945;-71
2021/03/06 06:12:57;;;;;;;8.93;7.90;;;1.40;69.90;;;;;;5075127;28;20454;-71
2021/03/06 06:15:24;;;;;;;11.03;8.47;;;1.40;69.60;;;;;;5075181;28;20441;-71
2021/03/06 06:17:50;;;;;;;9.87;7.73;;;1.40;69.50;;;;;;5074928;28;20830;-71
2021/03/06 06:20:16;;;;;;;11.70;7.93;;;1.40;69.50;;;;;;5075088;28;20444;-71
2021/03/06 06:22:43;;;;;;;9.83;8.40;;;1.40;69.50;;;;;;5074875;28;20449;-71
2021/03/06 06:25:29;;;;;;;7.57;6.40;;;1.40;69.70;;;;;;5074606;28;20974;-71
2021/03/06 06:28:00;;;;;;;8.77;7.33;;;1.40;69.70;;;;;;5074457;28;21007;-71
2021/03/06 06:30:26;;;;;;;8.80;7.43;;;1.40;69.70;;;;;;5074815;28;20791;-71
2021/03/06 06:32:52;;;;;;;12.07;7.43;;;1.40;69.80;;;;;;5074723;28;20451;-71
2021/03/06 06:35:18;;;;;;;11.47;8.40;;;1.50;69.80;;;;;;5073762;28;20451;-71
2021/03/06 06:37:56;;;;;;;10.17;8.30;;;1.50;70.00;;;;;;5074614;28;20482;-71
2021/03/06 06:40:24;;;;;;;11.60;8.27;;;1.50;69.90;;;;;;5074591;28;20434;-71
2021/03/06 06:42:51;;;;;;;11.33;8.30;;;1.50;70.00;;;;;;5074317;28;20447;-71
2021/03/06 06:45:17;;;;;;;12.77;9.40;;;1.50;70.00;;;;;;5074290;28;20953;-71
2021/03/06 06:47:45;;;;;;;10.30;8.33;;;1.50;70.20;;;;;;5074486;28;20804;-71
2021/03/06 06:50:13;;;;;;;12.87;8.23;;;1.50;70.20;;;;;;5074366;28;20447;-71
2021/03/06 06:52:40;;;;;;;10.20;8.10;;;1.50;70.30;;;;;;5074237;28;20479;-71
2021/03/06 06:55:08;;;;;;;9.07;8.20;;;1.50;70.30;;;;;;5074345;28;20459;-71
2021/03/06 06:57:46;;;;;;;11.53;9.20;;;1.60;70.60;;;;;;5074170;28;20476;-71
2021/03/06 07:00:14;;;;;;;11.87;8.90;;;1.60;70.70;;;;;;5074448;28;20440;-71
2021/03/06 07:02:51;;;;;;;11.93;9.80;;;1.60;70.90;;;;;;5074186;28;20435;-71
2021/03/06 07:05:26;;;;;;;11.87;8.80;;;1.70;71.20;;;;;;5073862;28;20534;-71
2021/03/06 07:07:53;;;;;;;13.13;10.70;;;1.70;71.40;;;;;;5074253;28;20470;-71
2021/03/06 07:10:21;;;;;;;16.20;10.63;;;1.70;71.40;;;;;;5074023;28;20441;-71
2021/03/06 07:12:57;;;;;;;15.60;10.93;;;1.80;71.60;;;;;;5073975;28;20447;-71
2021/03/06 07:15:25;;;;;;;16.27;11.03;;;1.80;71.60;;;;;;5073974;28;20914;-71
2021/03/06 07:17:53;;;;;;;13.20;9.70;;;1.80;71.60;;;;;;5073799;28;20518;-71
2021/03/06 07:20:32;;;;;;;16.77;10.97;;;1.90;71.90;;;;;;5073867;28;20448;-71
2021/03/06 07:23:10;;;;;;;15.90;10.10;;;1.90;71.80;;;;;;5073790;28;20451;-71
2021/03/06 07:25:37;;;;;;;12.20;9.40;;;2.00;71.90;;;;;;5073405;28;20459;-71
2021/03/06 07:28:04;;;;;;;15.53;10.43;;;2.10;72.10;;;;;;5073745;28;20446;-71
2021/03/06 07:30:31;;;;;;;13.30;9.73;;;2.10;72.00;;;;;;5073582;28;20444;-71
2021/03/06 07:33:00;;;;;;;11.20;9.00;;;2.10;72.10;;;;;;5073694;28;20435;-71
2021/03/06 07:35:27;;;;;;;12.90;9.27;;;2.20;72.40;;;;;;5073905;28;20442;-71
2021/03/06 07:37:58;;;;;;;13.97;9.70;;;2.30;72.40;;;;;;5073581;28;20537;-71
2021/03/06 07:40:29;;;;;;;14.63;9.07;;;2.30;72.50;;;;;;5073336;28;20809;-71
2021/03/06 07:42:58;;;;;;;13.80;9.80;;;2.40;72.70;;;;;;5073631;28;20423;-71
2021/03/06 07:45:27;;;;;;;12.37;8.93;;;2.40;72.60;;;;;;5073473;28;20450;-71
2021/03/06 07:47:57;;;;;;;12.60;9.63;;;2.50;72.80;;;;;;5073535;28;20472;-71
2021/03/06 07:50:27;;;;;;;12.40;10.40;;;2.60;73.30;;;;;;5073506;28;20431;-71
2021/03/06 07:52:55;;;;;;;16.00;9.27;;;2.60;73.60;;;;;;5073483;28;20486;-71
2021/03/06 07:55:23;;;;;;;11.47;9.57;;;2.60;73.80;;;;;;5073465;28;20432;-71
2021/03/06 07:58:00;;;;;;;10.53;8.50;;;2.70;74.10;;;;;;5073995;28;20466;-71
2021/03/06 08:00:39;;;;;;;14.23;9.23;;;2.80;74.10;;;;;;5073529;28;20510;-71
2021/03/06 08:03:38;;;;;;;15.00;8.90;;;2.90;73.30;;;;;;5073390;28;20503;-71
2021/03/06 08:06:07;;;;;;;12.00;8.67;;;3.00;72.90;;;;;;5072931;28;20487;-71
2021/03/06 08:09:12;;;;;;;10.70;8.40;;;3.00;72.20;;;;;;5073290;28;20552;-71
2021/03/06 08:11:48;;;;;;;11.53;8.03;;;3.10;72.00;;;;;;5071993;28;20486;-71
2021/03/06 08:14:32;;;;;;;10.03;8.63;;;3.20;71.90;;;;;;5073605;28;20536;-71
2021/03/06 08:16:59;;;;;;;10.00;8.43;;;3.20;71.80;;;;;;5073228;28;20468;-71
2021/03/06 08:19:30;;;;;;;11.07;8.17;;;3.30;71.50;;;;;;5073328;28;20443;-71
2021/03/06 08:22:13;;;;;;;10.20;7.77;;;3.40;71.50;;;;;;5073484;28;20431;-72
2021/03/06 08:24:40;;;;;;;14.80;9.03;;;3.40;71.20;;;;;;5073158;28;20431;-72
2021/03/06 08:27:20;;;;;;;11.20;7.77;;;3.50;70.90;;;;;;5073058;28;20469;-72
2021/03/06 08:29:48;;;;;;;9.53;8.40;;;3.60;70.60;;;;;;5073019;28;20462;-71
2021/03/06 08:32:25;;;;;;;15.33;8.83;;;3.70;70.70;;;;;;5072980;28;20486;-72
2021/03/06 08:34:53;;;;;;;12.03;9.30;;;3.70;70.60;;;;;;5073114;28;20432;-72
2021/03/06 08:37:37;;;;;;;11.23;8.40;;;3.80;70.40;;;;;;5072945;28;20517;-71
2021/03/06 08:40:09;;;;;;;8.97;7.50;;;3.90;70.20;;;;;;5073067;28;20430;-72
2021/03/06 08:42:37;;;;;;;10.77;8.10;;;3.90;69.70;;;;;;5072975;28;20488;-72
2021/03/06 08:45:06;;;;;;;12.80;8.23;;;4.00;69.90;;;;;;5072960;28;20810;-71
2021/03/06 08:47:35;;;;;;;10.27;8.17;;;4.10;68.90;;;;;;5073471;28;20482;-71
2021/03/06 08:50:05;;;;;;;11.47;8.73;;;4.10;68.90;;;;;;5072877;28;20436;-71
2021/03/06 08:52:35;;;;;;;11.93;8.03;;;4.20;68.70;;;;;;5073609;28;20464;-72
2021/03/06 08:55:03;;;;;;;10.70;8.70;;;4.30;68.40;;;;;;5076233;28;20431;-71
2021/03/06 08:57:31;;;;;;;12.50;8.53;;;4.40;68.20;;;;;;5072814;28;20468;-72
2021/03/06 08:59:59;;;;;;;10.80;7.87;;;4.40;67.80;;;;;;5075076;28;20433;-72
2021/03/06 09:02:31;;;;;;;8.80;7.87;;;4.50;67.90;;;;;;5076445;28;20437;-72
2021/03/06 09:05:06;;;;;;;9.63;8.17;;;4.60;68.00;;;;;;5076305;28;20420;-71
2021/03/06 09:07:34;;;;;;;8.90;7.03;;;4.60;67.70;;;;;;5077313;28;20472;-72
2021/03/06 09:10:21;;;;;;;9.93;7.57;;;4.70;67.30;;;;;;5076295;28;20447;-72
2021/03/06 09:12:50;;;;;;;12.57;7.80;;;4.80;66.90;;;;;;5076294;28;20467;-72
2021/03/06 09:15:38;;;;;;;10.80;7.70;;;4.90;66.70;;;;;;5076268;28;20554;-72
2021/03/06 09:18:06;;;;;;;8.90;8.00;;;4.90;66.10;;;;;;5075975;28;20425;-72
2021/03/06 09:20:41;;;;;;;8.57;7.70;;;5.00;65.90;;;;;;5076077;28;20587;-72
2021/03/06 09:23:08;;;;;;;10.67;7.03;;;5.10;65.90;;;;;;5076151;28;20433;-72
2021/03/06 09:25:38;;;;;;;9.57;7.57;;;5.20;65.70;;;;;;5076054;28;20451;-71
2021/03/06 09:28:05;;;;;;;9.13;7.40;;;5.30;65.30;;;;;;5076173;28;20468;-71
2021/03/06 09:30:37;;;;;;;10.53;8.13;;;5.40;65.00;;;;;;5075914;28;20449;-71
2021/03/06 09:33:04;;;;;;;10.10;9.10;;;5.40;64.80;;;;;;5075826;28;20432;-71
2021/03/06 09:35:31;;;;;;;10.93;7.83;;;5.60;64.30;;;;;;5075871;28;20468;-71
2021/03/06 09:38:10;;;;;;;14.90;8.80;;;5.70;63.60;;;;;;5075486;28;20829;-71
2021/03/06 09:40:42;;;;;;;11.00;8.17;;;5.80;63.60;;;;;;5075559;28;20433;-71
2021/03/06 09:43:10;;;;;;;9.47;7.90;;;5.90;63.90;;;;;;5075762;28;20463;-71
2021/03/06 09:45:37;;;;;;;8.77;7.53;;;6.00;64.30;;;;;;5075728;28;20463;-71
2021/03/06 09:48:11;;;;;;;8.97;8.07;;;6.10;63.40;;;;;;5075672;28;20802;-71
2021/03/06 09:50:38;;;;;;;8.83;7.97;;;6.30;63.50;;;;;;5075259;28;20428;-71
2021/03/06 09:53:18;;;;;;;12.40;8.00;;;6.40;63.60;;;;;;5075527;28;20444;-71
2021/03/06 09:55:44;;;;;;;9.23;7.70;;;6.50;62.50;;;;;;5075566;28;20433;-71
2021/03/06 09:58:31;;;;;;;8.70;6.53;;;6.70;61.20;;;;;;5075493;28;20445;-71
2021/03/06 10:01:15;;;;;;;9.80;7.93;;;6.90;61.50;;;;;;5070391;28;20465;-71
2021/03/06 10:03:42;;;;;;;13.67;7.83;;;7.10;60.50;;;;;;5076150;28;20827;-74
2021/03/06 10:06:10;;;;;;;8.80;7.90;;;7.30;59.90;;;;;;5075210;28;20469;-73
2021/03/06 10:08:44;;;;;;;9.60;8.17;;;7.50;59.60;;;;;;5075278;28;20425;-73
2021/03/06 10:11:10;;;;;;;8.03;7.30;;;7.80;59.20;;;;;;5074004;28;20505;-73
2021/03/06 10:13:36;;;;;;;8.23;7.47;;;8.00;58.30;;;;;;5075140;28;20444;-73
2021/03/06 10:16:03;;;;;;;8.77;7.40;;;8.30;57.10;;;;;;5075081;28;20469;-73
2021/03/06 10:18:35;;;;;;;6.93;6.33;;;8.50;56.70;;;;;;5075021;28;20501;-73
2021/03/06 10:21:10;;;;;;;7.60;6.80;;;8.80;55.80;;;;;;5075091;28;20425;-75
2021/03/06 10:23:37;;;;;;;9.80;7.63;;;9.30;55.30;;;;;;5075273;28;20435;-73
2021/03/06 10:26:24;;;;;;;8.20;7.30;;;9.80;52.30;;;;;;5074817;28;20461;-74
2021/03/06 10:28:53;;;;;;;7.73;6.77;;;10.30;50.20;;;;;;5074893;28;20451;-74
2021/03/06 10:31:31;;;;;;;6.60;5.90;;;10.80;49.40;;;;;;5074383;28;21062;-74
2021/03/06 10:33:58;;;;;;;6.90;5.53;;;11.30;46.70;;;;;;5074746;28;20455;-73
2021/03/06 10:36:25;;;;;;;6.13;5.43;;;11.80;44.50;;;;;;5074332;28;20993;-73
2021/03/06 10:39:15;;;;;;;6.60;5.43;;;12.30;43.50;;;;;;5074654;28;20429;-73
2021/03/06 10:41:42;;;;;;;5.83;5.33;;;12.90;42.00;;;;;;5074592;28;20863;-73
2021/03/06 10:44:08;;;;;;;6.60;5.00;;;13.40;40.60;;;;;;5074760;28;20436;-73
2021/03/06 10:46:35;;;;;;;6.13;4.63;;;14.00;40.50;;;;;;5074105;28;20986;-76
2021/03/06 10:49:03;;;;;;;5.63;5.03;;;14.60;38.60;;;;;;5074347;28;20952;-73
2021/03/06 10:51:44;;;;;;;5.47;4.97;;;15.10;36.70;;;;;;5074527;28;20481;-73
2021/03/06 10:54:11;;;;;;;5.70;5.10;;;15.70;35.50;;;;;;5074350;28;20447;-73
2021/03/06 10:56:39;;;;;;;5.10;4.57;;;16.20;33.00;;;;;;5073982;28;20970;-73
2021/03/06 10:59:06;;;;;;;6.63;4.60;;;16.70;31.80;;;;;;5074279;28;20441;-73
2021/03/06 11:01:33;;;;;;;5.67;5.10;;;17.20;31.00;;;;;;5074197;28;20444;-73
2021/03/06 11:04:00;;;;;;;5.60;4.77;;;17.70;30.60;;;;;;5074140;28;20524;-73
2021/03/06 11:06:26;;;;;;;5.33;4.83;;;18.10;29.30;;;;;;5073996;28;20488;-72
2021/03/06 11:09:00;;;;;;;10.70;5.93;;;18.50;29.10;;;;;;5074216;28;20445;-73
2021/03/06 11:11:27;;;;;;;5.30;4.70;;;18.80;28.00;;;;;;5074051;28;20477;-74
2021/03/06 11:13:55;;;;;;;4.77;4.37;;;17.80;28.50;;;;;;5073927;28;20910;-73
2021/03/06 11:16:37;;;;;;;5.70;5.03;;;17.90;28.30;;;;;;5073950;28;20468;-74
2021/03/06 11:19:03;;;;;;;4.40;4.00;;;18.20;28.00;;;;;;5074301;28;20429;-74
2021/03/06 11:21:30;;;;;;;7.10;4.37;;;18.50;27.80;;;;;;5073511;28;20473;-75
2021/03/06 11:23:56;;;;;;;6.30;4.60;;;18.70;27.60;;;;;;5073845;28;20445;-74
2021/03/06 11:26:22;;;;;;;5.10;3.93;;;19.10;26.80;;;;;;5073727;28;20475;-73
2021/03/06 11:28:48;;;;;;;5.93;4.33;;;18.80;25.90;;;;;;5073766;28;20864;-74
2021/03/06 11:31:15;;;;;;;3.70;3.00;;;16.60;27.10;;;;;;5073674;28;20485;-74
2021/03/06 11:33:42;;;;;;;3.83;3.13;;;16.80;27.70;;;;;;5073681;28;20821;-74
2021/03/06 11:36:08;;;;;;;4.57;3.60;;;17.20;26.60;;;;;;5073330;28;20469;-74
2021/03/06 11:38:34;;;;;;;3.70;3.37;;;17.50;26.90;;;;;;5074294;28;20456;-74
2021/03/06 11:41:00;;;;;;;5.07;3.30;;;18.10;25.30;;;;;;5073628;28;20444;-74
2021/03/06 11:43:26;;;;;;;6.00;3.47;;;18.40;25.80;;;;;;5073555;28;20451;-72
2021/03/06 11:45:53;;;;;;;4.93;2.90;;;18.80;25.40;;;;;;5073442;28;20502;-74
2021/03/06 11:48:20;;;;;;;3.73;2.87;;;19.30;24.90;;;;;;5073543;28;20429;-74
2021/03/06 11:50:49;;;;;;;4.17;3.77;;;19.70;24.60;;;;;;5073517;28;20807;-72
2021/03/06 11:53:15;;;;;;;5.20;3.80;;;20.20;24.30;;;;;;5073446;28;20494;-74
2021/03/06 11:55:42;;;;;;;3.77;3.40;;;20.60;24.60;;;;;;5073362;28;20444;-75
2021/03/06 11:58:08;;;;;;;4.63;3.63;;;21.20;23.90;;;;;;5073247;28;20448;-73
2021/03/06 12:00:36;;;;;;;3.10;2.83;;;21.70;23.80;;;;;;5073333;28;20498;-73
2021/03/06 12:03:02;;;;;;;4.47;3.30;;;22.30;23.30;;;;;;5073335;28;20448;-73
2021/03/06 12:05:29;;;;;;;3.73;3.30;;;22.80;22.40;;;;;;5073200;28;20469;-73
2021/03/06 12:07:56;;;;;;;3.83;3.13;;;23.30;22.50;;;;;;5073246;28;20472;-74
2021/03/06 12:10:25;;;;;;;3.57;3.13;;;23.80;22.80;;;;;;5073284;28;20495;-74
2021/03/06 12:12:51;;;;;;;3.60;2.87;;;24.30;22.20;;;;;;5072880;28;21002;-74
2021/03/06 12:15:18;;;;;;;3.20;2.93;;;24.70;21.10;;;;;;5073296;28;20448;-74
2021/03/06 12:17:45;;;;;;;3.97;2.97;;;25.20;21.20;;;;;;5073155;28;20461;-74
2021/03/06 12:20:13;;;;;;;5.27;3.40;;;25.70;21.10;;;;;;5073221;28;20445;-74
2021/03/06 12:22:40;;;;;;;2.93;2.73;;;26.20;20.30;;;;;;5073184;28;20440;-74
2021/03/06 12:25:07;;;;;;;2.50;2.30;;;26.60;19.10;;;;;;5073166;28;20444;-72
2021/03/06 12:27:35;;;;;;;3.33;3.00;;;26.90;18.90;;;;;;5073100;28;20494;-73
2021/03/06 12:30:01;;;;;;;2.23;2.03;;;27.10;18.90;;;;;;5073121;28;20498;-74
2021/03/06 12:32:27;;;;;;;3.87;2.10;;;27.30;19.00;;;;;;5073051;28;20468;-74
2021/03/06 12:34:53;;;;;;;5.03;2.80;;;27.50;18.80;;;;;;5075414;28;20514;-73
2021/03/06 12:37:21;;;;;;;4.40;2.40;;;27.80;18.70;;;;;;5076928;28;20464;-74
2021/03/06 12:39:48;;;;;;;3.53;2.40;;;27.90;17.50;;;;;;5076898;28;20445;-74
2021/03/06 12:42:14;;;;;;;4.23;2.37;;;28.10;17.40;;;;;;5076558;28;20934;-73
2021/03/06 12:44:40;;;;;;;2.43;2.23;;;28.30;17.40;;;;;;5076803;28;20498;-73
2021/03/06 12:47:06;;;;;;;2.80;2.03;;;28.60;17.70;;;;;;5076547;28;20460;-73
2021/03/06 12:49:33;;;;;;;4.57;2.43;;;28.80;17.20;;;;;;5076379;28;20857;-73
2021/03/06 12:51:59;;;;;;;2.30;2.10;;;29.00;16.70;;;;;;5076575;28;20472;-73
2021/03/06 12:54:26;;;;;;;2.60;2.40;;;29.10;16.90;;;;;;5076586;28;20436;-73
2021/03/06 12:56:53;;;;;;;2.00;1.80;;;29.40;16.90;;;;;;5076550;28;20464;-73
2021/03/06 12:59:19;;;;;;;2.73;2.53;;;29.60;15.70;;;;;;5076544;28;20444;-74
2021/03/06 13:01:45;;;;;;;2.30;1.80;;;29.60;16.30;;;;;;5076784;28;20443;-74